Time;durP1;ratioP1;P1;durP2;ratioP2;P2;SDS_P1;SDS_P2;PMS_P1;PMS_P2;Temp;Humidity;BMP_temperature;BMP_pressure;BME280_temperature;BME280_humidity;BME280_pressure;Samples;Min_cycle;Max_cycle;Signal;HPM_P1;HPM_P2
2024/02/05 00:00:36;;;;;;;1.63;0.50;;;;;;;;;;10543895;28;20036;-76
2024/02/05 00:05:41;;;;;;;1.13;0.40;;;;;;;;;;10545445;27;20036;-77
2024/02/05 00:10:43;;;;;;;;;;;;;;;;;;10545633;27;20047;-76
2024/02/05 00:15:46;;;;;;;1.45;0.52;;;;;;;;;;10547448;27;20369;-77
2024/02/05 00:20:50;;;;;;;0.60;0.55;;;;;;;;;;10546085;27;20046;-76
2024/02/05 00:25:53;;;;;;;0.60;0.55;;;;;;;;;;10546803;27;20044;-79
2024/02/05 00:30:55;;;;;;;1.13;0.60;;;;;;;;;;10543553;27;20048;-77
2024/02/05 00:35:59;;;;;;;4.32;0.50;;;;;;;;;;10540505;27;20047;-76
2024/02/05 00:41:02;;;;;;;1.45;0.70;;;;;;;;;;10542198;27;20040;-77
2024/02/05 00:46:05;;;;;;;0.70;0.45;;;;;;;;;;10541582;27;20861;-76
2024/02/05 00:51:10;;;;;;;1.73;0.45;;;;;;;;;;10535254;28;20127;-77
2024/02/05 00:56:13;;;;;;;2.67;1.02;;;;;;;;;;10537228;27;20040;-77
2024/02/05 01:01:15;;;;;;;2.72;0.60;;;;;;;;;;10540728;27;20066;-76
2024/02/05 01:06:20;;;;;;;1.70;0.55;;;;;;;;;;10531032;27;20488;-76
2024/02/05 01:11:23;;;;;;;2.50;1.13;;;;;;;;;;10524803;28;20039;-78
2024/02/05 01:16:26;;;;;;;2.88;1.00;;;;;;;;;;10520568;28;20044;-77
2024/02/05 01:21:31;;;;;;;2.10;1.10;;;;;;;;;;10537331;27;20081;-77
2024/02/05 01:26:34;;;;;;;1.63;0.68;;;;;;;;;;10536048;28;20043;-77
2024/02/05 01:31:37;;;;;;;2.17;0.87;;;;;;;;;;10535746;28;20047;-77
2024/02/05 01:36:42;;;;;;;2.05;1.00;;;;;;;;;;10517178;27;20116;-78
2024/02/05 01:41:44;;;;;;;;;;;;;;;;;;10534971;27;20047;-78
2024/02/05 01:46:47;;;;;;;5.20;1.65;;;;;;;;;;10536591;27;20028;-77
2024/02/05 01:51:52;;;;;;;2.78;1.17;;;;;;;;;;10536510;28;20068;-77
2024/02/05 01:56:56;;;;;;;2.75;1.30;;;;;;;;;;10538310;27;20155;-78
2024/02/05 02:02:00;;;;;;;4.25;1.48;;;;;;;;;;10522153;28;20135;-77
2024/02/05 02:07:04;;;;;;;;;;;;;;;;;;10536125;27;20040;-78
2024/02/05 02:12:08;;;;;;;3.75;1.10;;;;;;;;;;10540941;27;20471;-77
2024/02/05 02:17:11;;;;;;;5.75;1.75;;;;;;;;;;10537225;28;20349;-77
2024/02/05 02:22:17;;;;;;;3.87;1.47;;;;;;;;;;10538428;28;20515;-75
2024/02/05 02:27:22;;;;;;;5.18;2.03;;;;;;;;;;10535427;27;20063;-76
2024/02/05 02:32:30;;;;;;;4.03;1.90;;;;;;;;;;10534794;27;20197;-77
2024/02/05 02:37:36;;;;;;;3.97;1.35;;;;;;;;;;10535621;27;20046;-76
2024/02/05 02:42:41;;;;;;;3.65;1.60;;;;;;;;;;10535294;27;20417;-77
2024/02/05 02:47:44;;;;;;;4.07;1.40;;;;;;;;;;10534122;28;20043;-79
2024/02/05 02:52:47;;;;;;;3.67;1.60;;;;;;;;;;10537274;28;20042;-77
2024/02/05 02:57:51;;;;;;;3.53;1.60;;;;;;;;;;10535285;28;20035;-76
2024/02/05 03:02:54;;;;;;;1.65;1.00;;;;;;;;;;10534250;28;20052;-77
2024/02/05 03:07:57;;;;;;;5.97;1.38;;;;;;;;;;10531352;27;20156;-76
2024/02/05 03:13:01;;;;;;;8.48;2.15;;;;;;;;;;10534042;28;20044;-77
2024/02/05 03:18:05;;;;;;;6.18;1.88;;;;;;;;;;10534696;28;20043;-76
2024/02/05 03:23:08;;;;;;;9.47;2.83;;;;;;;;;;10536715;28;20047;-76
2024/02/05 03:28:15;;;;;;;5.30;2.28;;;;;;;;;;10533973;28;20052;-77
2024/02/05 03:33:19;;;;;;;9.98;2.33;;;;;;;;;;10532030;28;20076;-77
2024/02/05 03:38:22;;;;;;;6.20;1.85;;;;;;;;;;10533710;28;20044;-76
2024/02/05 03:43:26;;;;;;;5.25;2.17;;;;;;;;;;10534792;28;20047;-77
2024/02/05 03:48:30;;;;;;;8.15;2.10;;;;;;;;;;10516989;28;20048;-77
2024/02/05 03:53:32;;;;;;;11.43;2.37;;;;;;;;;;10535969;28;20050;-78
2024/02/05 03:58:37;;;;;;;4.78;2.17;;;;;;;;;;10533871;28;20044;-77
2024/02/05 04:03:40;;;;;;;4.22;1.88;;;;;;;;;;10533665;28;20277;-77
2024/02/05 04:08:43;;;;;;;9.63;2.47;;;;;;;;;;10534762;28;20036;-76
2024/02/05 04:13:47;;;;;;;5.35;1.83;;;;;;;;;;10534222;28;20047;-76
2024/02/05 04:18:50;;;;;;;7.00;2.25;;;;;;;;;;10538035;27;20047;-77
2024/02/05 04:23:53;;;;;;;7.10;2.03;;;;;;;;;;10544368;27;20055;-76
2024/02/05 04:28:57;;;;;;;4.90;1.77;;;;;;;;;;10547749;27;20168;-76
2024/02/05 04:34:00;;;;;;;5.43;1.55;;;;;;;;;;10539107;27;20143;-77
2024/02/05 04:39:05;;;;;;;3.17;1.40;;;;;;;;;;10538283;27;20040;-78
2024/02/05 04:44:11;;;;;;;3.45;1.33;;;;;;;;;;10538170;27;20150;-76
2024/02/05 04:49:14;;;;;;;3.08;1.10;;;;;;;;;;10539477;27;20046;-77
2024/02/05 04:54:16;;;;;;;3.63;1.50;;;;;;;;;;10538650;27;20523;-76
2024/02/05 04:59:21;;;;;;;4.20;1.48;;;;;;;;;;10537776;27;20048;-77
2024/02/05 05:04:24;;;;;;;5.60;1.67;;;;;;;;;;10537155;27;20128;-76
2024/02/05 05:09:27;;;;;;;5.45;1.60;;;;;;;;;;10538602;27;20035;-76
2024/02/05 05:14:31;;;;;;;5.53;1.17;;;;;;;;;;10539293;27;20047;-77
2024/02/05 05:19:51;;;;;;;1.95;1.38;;;;;;;;;;10538376;27;20051;-77
2024/02/05 05:24:54;;;;;;;2.08;0.93;;;;;;;;;;10541686;28;20047;-77
2024/02/05 05:29:59;;;;;;;5.75;1.67;;;;;;;;;;10538690;28;20527;-78
2024/02/05 05:35:01;;;;;;;;;;;;;;;;;;10519261;27;20079;-77
2024/02/05 05:40:05;;;;;;;2.28;1.17;;;;;;;;;;10539906;27;19935;-77
2024/02/05 05:45:09;;;;;;;3.20;1.00;;;;;;;;;;10536887;27;20119;-76
2024/02/05 05:50:12;;;;;;;3.17;1.13;;;;;;;;;;10538005;27;20046;-77
2024/02/05 05:55:15;;;;;;;4.10;1.30;;;;;;;;;;10538501;27;20043;-76
2024/02/05 06:00:23;;;;;;;4.45;1.20;;;;;;;;;;10537925;27;20039;-77
2024/02/05 06:05:26;;;;;;;3.53;1.52;;;;;;;;;;10541028;27;20074;-75
2024/02/05 06:10:28;;;;;;;3.00;1.10;;;;;;;;;;10539469;27;20040;-76
2024/02/05 06:15:33;;;;;;;7.60;1.60;;;;;;;;;;10539529;27;20493;-76
2024/02/05 06:20:35;;;;;;;;;;;;;;;;;;10541500;27;20503;-75
2024/02/05 06:25:38;;;;;;;3.17;1.15;;;;;;;;;;10541768;27;19934;-75
2024/02/05 06:30:49;;;;;;;3.47;1.50;;;;;;;;;;10522134;28;20107;-75
2024/02/05 06:35:52;;;;;;;2.90;1.13;;;;;;;;;;10539207;27;20505;-75
2024/02/05 06:40:55;;;;;;;1.92;0.77;;;;;;;;;;10538817;27;20039;-77
2024/02/05 06:45:59;;;;;;;1.55;0.88;;;;;;;;;;10537689;27;20126;-76
2024/02/05 06:51:02;;;;;;;2.60;1.10;;;;;;;;;;10524625;27;20377;-76
2024/02/05 06:56:05;;;;;;;2.53;1.20;;;;;;;;;;10539002;27;20058;-76
2024/02/05 07:01:10;;;;;;;3.20;1.17;;;;;;;;;;10539541;28;20032;-77
2024/02/05 07:06:13;;;;;;;2.83;1.20;;;;;;;;;;10538150;28;20048;-77
2024/02/05 07:11:15;;;;;;;5.13;1.10;;;;;;;;;;10538606;28;20046;-76
2024/02/05 07:16:21;;;;;;;1.10;1.02;;;;;;;;;;10539478;28;20048;-75
2024/02/05 07:21:24;;;;;;;4.38;0.98;;;;;;;;;;10535061;28;20047;-76
2024/02/05 07:26:27;;;;;;;1.80;1.05;;;;;;;;;;10543027;27;20044;-75
2024/02/05 07:31:32;;;;;;;1.50;0.90;;;;;;;;;;10531752;28;20445;-76
2024/02/05 07:36:35;;;;;;;2.50;1.25;;;;;;;;;;10530663;28;20048;-74
2024/02/05 07:41:37;;;;;;;1.88;1.00;;;;;;;;;;10532916;28;20110;-75
2024/02/05 07:46:41;;;;;;;2.15;0.98;;;;;;;;;;10532108;28;20184;-75
2024/02/05 07:51:45;;;;;;;;;;;;;;;;;;10532502;28;20094;-75
2024/02/05 07:56:48;;;;;;;2.27;1.20;;;;;;;;;;10535912;27;20301;-75
2024/02/05 08:01:52;;;;;;;4.22;1.20;;;;;;;;;;10540392;28;20027;-74
2024/02/05 08:06:58;;;;;;;7.93;1.65;;;;;;;;;;10541992;27;20051;-76
2024/02/05 08:12:01;;;;;;;3.83;1.42;;;;;;;;;;10546626;27;20040;-75
2024/02/05 08:17:06;;;;;;;3.03;1.30;;;;;;;;;;10542487;27;20052;-75
2024/02/05 08:22:11;;;;;;;7.88;2.15;;;;;;;;;;10541032;28;20040;-75
2024/02/05 08:27:13;;;;;;;3.22;1.52;;;;;;;;;;10540285;27;20047;-76
2024/02/05 08:32:18;;;;;;;2.17;1.57;;;;;;;;;;10545016;27;20075;-77
2024/02/05 08:37:21;;;;;;;3.30;1.75;;;;;;;;;;10541717;27;20127;-77
2024/02/05 08:42:24;;;;;;;3.67;1.60;;;;;;;;;;10540161;27;20036;-76
2024/02/05 08:47:36;;;;;;;2.45;1.55;;;;;;;;;;10539224;27;20497;-77
2024/02/05 08:52:39;;;;;;;3.83;1.50;;;;;;;;;;10538287;27;20042;-76
2024/02/05 08:57:41;;;;;;;3.05;1.70;;;;;;;;;;10537726;27;22267;-77
2024/02/05 09:02:50;;;;;;;1.85;1.65;;;;;;;;;;10536319;27;20445;-78
2024/02/05 09:07:53;;;;;;;2.72;1.77;;;;;;;;;;10535432;27;20119;-78
2024/02/05 09:12:56;;;;;;;;;;;;;;;;;;10535689;27;20053;-76
2024/02/05 09:18:00;;;;;;;3.33;1.77;;;;;;;;;;10532447;27;20042;-76
2024/02/05 09:23:03;;;;;;;3.38;1.73;;;;;;;;;;10532645;28;20082;-76
2024/02/05 09:28:05;;;;;;;;;;;;;;;;;;10539610;27;20858;-77
2024/02/05 09:33:10;;;;;;;6.70;2.03;;;;;;;;;;10536085;27;20004;-76
2024/02/05 09:38:13;;;;;;;4.63;2.22;;;;;;;;;;10532168;28;20309;-77
2024/02/05 09:43:15;;;;;;;;;;;;;;;;;;10540619;27;20121;-78
2024/02/05 09:48:22;;;;;;;8.18;2.25;;;;;;;;;;10533428;27;19946;-78
2024/02/05 09:53:40;;;;;;;4.90;2.03;;;;;;;;;;10532295;27;20046;-77
2024/02/05 09:58:43;;;;;;;9.13;2.50;;;;;;;;;;10531986;27;20039;-77
2024/02/05 10:03:49;;;;;;;12.27;2.75;;;;;;;;;;10532768;27;20040;-77
2024/02/05 10:08:54;;;;;;;5.40;2.08;;;;;;;;;;10532704;27;20039;-78
2024/02/05 10:13:57;;;;;;;7.65;2.40;;;;;;;;;;10532796;28;20048;-78
2024/02/05 10:19:04;;;;;;;7.18;2.30;;;;;;;;;;10533352;28;20067;-78
2024/02/05 10:24:12;;;;;;;8.80;2.67;;;;;;;;;;10533969;27;20433;-78
2024/02/05 10:29:16;;;;;;;13.35;2.95;;;;;;;;;;10533528;27;20039;-77
2024/02/05 10:34:21;;;;;;;13.95;3.17;;;;;;;;;;10526712;27;20040;-78
2024/02/05 10:39:26;;;;;;;8.77;3.13;;;;;;;;;;10530693;28;20040;-77
2024/02/05 10:44:30;;;;;;;11.30;2.85;;;;;;;;;;10533311;27;20580;-78
2024/02/05 10:49:45;;;;;;;12.98;3.03;;;;;;;;;;10531254;28;20157;-77
2024/02/05 10:54:49;;;;;;;8.52;3.10;;;;;;;;;;10530410;27;20548;-77
2024/02/05 10:59:53;;;;;;;10.35;2.80;;;;;;;;;;10529268;28;20490;-78
2024/02/05 11:04:59;;;;;;;6.35;2.38;;;;;;;;;;10532432;27;20055;-78
2024/02/05 11:10:08;;;;;;;7.13;2.47;;;;;;;;;;10528482;27;20047;-78
2024/02/05 11:15:13;;;;;;;9.50;2.80;;;;;;;;;;10530647;28;20058;-79
2024/02/05 11:20:19;;;;;;;7.30;2.67;;;;;;;;;;10528969;28;20050;-78
2024/02/05 11:25:23;;;;;;;8.82;2.40;;;;;;;;;;10532354;27;20054;-78
2024/02/05 11:30:28;;;;;;;6.22;2.60;;;;;;;;;;10529823;28;20051;-78
2024/02/05 11:35:34;;;;;;;6.75;2.35;;;;;;;;;;10527227;28;20047;-79
2024/02/05 11:40:38;;;;;;;9.63;2.50;;;;;;;;;;10529386;28;20047;-77
2024/02/05 11:45:40;;;;;;;6.88;2.38;;;;;;;;;;10529357;28;20051;-77
2024/02/05 11:50:46;;;;;;;7.88;2.20;;;;;;;;;;10526777;28;20043;-77
2024/02/05 11:55:49;;;;;;;6.85;2.10;;;;;;;;;;10526504;28;20055;-78
2024/02/05 12:00:53;;;;;;;3.95;2.00;;;;;;;;;;10527021;28;20549;-77
2024/02/05 12:05:57;;;;;;;7.00;2.10;;;;;;;;;;10525527;28;20634;-77
2024/02/05 12:11:00;;;;;;;2.67;1.77;;;;;;;;;;10526562;28;20040;-77
2024/02/05 12:16:09;;;;;;;8.20;2.47;;;;;;;;;;10528454;28;20051;-78
2024/02/05 12:21:14;;;;;;;7.18;2.15;;;;;;;;;;10525754;28;20036;-77
2024/02/05 12:26:17;;;;;;;5.93;2.10;;;;;;;;;;10528760;28;20160;-77
2024/02/05 12:31:20;;;;;;;10.93;2.30;;;;;;;;;;10524829;28;20039;-77
2024/02/05 12:36:26;;;;;;;9.70;2.65;;;;;;;;;;10527768;28;20056;-76
2024/02/05 12:41:29;;;;;;;8.68;2.15;;;;;;;;;;10529360;27;20084;-77
2024/02/05 12:46:32;;;;;;;7.85;2.13;;;;;;;;;;10536738;27;20497;-76
2024/02/05 12:51:42;;;;;;;12.15;2.30;;;;;;;;;;10537194;27;20122;-78
2024/02/05 12:56:45;;;;;;;6.18;2.35;;;;;;;;;;10535148;27;20102;-77
2024/02/05 13:01:48;;;;;;;;;;;;;;;;;;10534032;27;20043;-76
2024/02/05 13:07:07;;;;;;;3.17;1.88;;;;;;;;;;10532258;27;19923;-77
2024/02/05 13:12:16;;;;;;;5.93;2.28;;;;;;;;;;10533867;27;20389;-78
2024/02/05 13:17:19;;;;;;;6.75;2.20;;;;;;;;;;10533818;27;20052;-77
2024/02/05 13:22:21;;;;;;;;;;;;;;;;;;10536068;27;20040;-77
2024/02/05 13:27:25;;;;;;;7.10;2.00;;;;;;;;;;10533595;27;19923;-77
2024/02/05 13:32:28;;;;;;;10.88;2.25;;;;;;;;;;10531186;27;20036;-78
2024/02/05 13:37:36;;;;;;;8.45;2.00;;;;;;;;;;10531463;27;20249;-77
2024/02/05 13:42:46;;;;;;;5.93;1.90;;;;;;;;;;10530035;27;20406;-78
2024/02/05 13:47:51;;;;;;;5.63;2.10;;;;;;;;;;10516577;27;20158;-76
2024/02/05 13:52:55;;;;;;;4.22;1.42;;;;;;;;;;10530325;27;20059;-76
2024/02/05 13:58:00;;;;;;;9.43;2.05;;;;;;;;;;10514506;28;20176;-78
2024/02/05 14:03:03;;;;;;;12.77;2.00;;;;;;;;;;10530175;27;20145;-78
2024/02/05 14:08:06;;;;;;;8.82;2.40;;;;;;;;;;10531094;27;20048;-77
2024/02/05 14:13:10;;;;;;;6.20;2.17;;;;;;;;;;10531046;28;20051;-78
2024/02/05 14:18:14;;;;;;;9.20;1.63;;;;;;;;;;10531204;27;20047;-76
2024/02/05 14:23:17;;;;;;;7.32;1.63;;;;;;;;;;10530985;27;20043;-76
2024/02/05 14:28:21;;;;;;;4.85;1.80;;;;;;;;;;10534845;27;20515;-76
2024/02/05 14:33:23;;;;;;;4.75;1.80;;;;;;;;;;10533724;27;20537;-77
2024/02/05 14:38:26;;;;;;;9.65;1.80;;;;;;;;;;10533148;27;20092;-77
2024/02/05 14:43:31;;;;;;;9.93;2.20;;;;;;;;;;10531748;28;20132;-76
2024/02/05 14:48:34;;;;;;;7.07;1.58;;;;;;;;;;10532556;27;20138;-77
2024/02/05 14:53:39;;;;;;;6.75;1.30;;;;;;;;;;10533235;27;20128;-77
2024/02/05 14:58:43;;;;;;;3.97;1.20;;;;;;;;;;10533400;28;20206;-77
2024/02/05 15:03:47;;;;;;;1.40;0.73;;;;;;;;;;10531320;27;20067;-76
2024/02/05 15:08:50;;;;;;;5.80;1.60;;;;;;;;;;10527738;28;20137;-77
2024/02/05 15:13:54;;;;;;;9.25;3.03;;;;;;;;;;10514762;28;20042;-78
2024/02/05 15:18:57;;;;;;;11.07;1.63;;;;;;;;;;10531820;28;20043;-77
2024/02/05 15:23:59;;;;;;;9.13;1.30;;;;;;;;;;10527680;28;20534;-77
2024/02/05 15:29:03;;;;;;;5.82;1.50;;;;;;;;;;10530068;28;20058;-76
2024/02/05 15:34:06;;;;;;;9.23;1.60;;;;;;;;;;10527228;28;20040;-77
2024/02/05 15:39:11;;;;;;;3.53;1.33;;;;;;;;;;10530106;28;20048;-76
2024/02/05 15:44:23;;;;;;;9.80;1.88;;;;;;;;;;10530584;28;20044;-76
2024/02/05 15:49:32;;;;;;;4.82;1.05;;;;;;;;;;10528944;28;20055;-77
2024/02/05 15:54:36;;;;;;;6.28;1.17;;;;;;;;;;10529420;28;20720;-79
2024/02/05 15:59:47;;;;;;;7.07;1.45;;;;;;;;;;10528317;28;20051;-77
2024/02/05 16:04:50;;;;;;;8.95;1.55;;;;;;;;;;10529575;28;20571;-77
2024/02/05 16:09:52;;;;;;;3.70;1.07;;;;;;;;;;10509139;28;20128;-76
2024/02/05 16:14:57;;;;;;;7.43;1.70;;;;;;;;;;10528318;28;20036;-77
2024/02/05 16:20:00;;;;;;;7.63;1.38;;;;;;;;;;10538897;27;20043;-76
2024/02/05 16:25:05;;;;;;;7.27;1.30;;;;;;;;;;10537233;27;20040;-77
2024/02/05 16:30:08;;;;;;;;;;;;;;;;;;10537847;27;20137;-76
2024/02/05 16:35:12;;;;;;;6.40;1.25;;;;;;;;;;10540024;27;20037;-76
2024/02/05 16:40:15;;;;;;;10.77;1.45;;;;;;;;;;10537006;27;20043;-76
2024/02/05 16:45:22;;;;;;;10.27;1.70;;;;;;;;;;10541121;27;20120;-76
2024/02/05 16:50:27;;;;;;;4.72;1.33;;;;;;;;;;10534984;28;20092;-78
2024/02/05 16:55:29;;;;;;;;;;;;;;;;;;10536630;28;20048;-76
2024/02/05 17:00:33;;;;;;;8.90;0.90;;;;;;;;;;10535100;27;19927;-76
2024/02/05 17:05:38;;;;;;;9.30;2.08;;;;;;;;;;10537451;28;20047;-76
2024/02/05 17:10:41;;;;;;;5.53;1.20;;;;;;;;;;10534096;27;20038;-76
2024/02/05 17:15:48;;;;;;;6.47;2.15;;;;;;;;;;10541375;27;20185;-76
2024/02/05 17:20:53;;;;;;;4.35;0.95;;;;;;;;;;10532521;28;20987;-77
2024/02/05 17:25:56;;;;;;;3.30;0.98;;;;;;;;;;10533096;27;20142;-77
2024/02/05 17:31:00;;;;;;;8.02;1.42;;;;;;;;;;10531953;27;20051;-77
2024/02/05 17:36:05;;;;;;;4.78;0.90;;;;;;;;;;10535484;27;20044;-77
2024/02/05 17:41:08;;;;;;;12.68;1.48;;;;;;;;;;10532391;27;20146;-75
2024/02/05 17:46:10;;;;;;;7.72;1.08;;;;;;;;;;10532413;28;20038;-76
2024/02/05 17:51:15;;;;;;;5.30;1.67;;;;;;;;;;10532269;28;20484;-77
2024/02/05 17:56:19;;;;;;;4.88;1.88;;;;;;;;;;10533015;27;20063;-77
2024/02/05 18:01:21;;;;;;;17.23;2.08;;;;;;;;;;10532335;27;20043;-77
2024/02/05 18:06:29;;;;;;;8.70;1.98;;;;;;;;;;10530897;27;20043;-77
2024/02/05 18:11:32;;;;;;;2.13;0.82;;;;;;;;;;10534162;28;20050;-77
2024/02/05 18:16:36;;;;;;;3.85;1.65;;;;;;;;;;10530774;27;20036;-78
2024/02/05 18:21:40;;;;;;;8.43;1.17;;;;;;;;;;10526091;27;20047;-77
2024/02/05 18:26:43;;;;;;;10.52;1.80;;;;;;;;;;10531665;28;20035;-77
2024/02/05 18:31:51;;;;;;;12.65;2.25;;;;;;;;;;10534314;28;20036;-76
2024/02/05 18:36:55;;;;;;;9.00;1.90;;;;;;;;;;10531773;28;20370;-77
2024/02/05 18:41:58;;;;;;;14.98;1.42;;;;;;;;;;10528977;27;20040;-76
2024/02/05 18:47:04;;;;;;;5.28;1.35;;;;;;;;;;10533843;28;20132;-76
2024/02/05 18:52:08;;;;;;;8.32;1.52;;;;;;;;;;10534708;28;20047;-76
2024/02/05 18:57:15;;;;;;;9.05;2.38;;;;;;;;;;10539494;27;20540;-77
2024/02/05 19:02:23;;;;;;;7.90;1.65;;;;;;;;;;10535638;27;20075;-76
2024/02/05 19:07:27;;;;;;;4.82;1.30;;;;;;;;;;10536276;27;20056;-76
2024/02/05 19:12:31;;;;;;;6.60;1.20;;;;;;;;;;10537236;28;20048;-76
2024/02/05 19:17:33;;;;;;;2.72;0.93;;;;;;;;;;10537335;27;20189;-78
2024/02/05 19:22:38;;;;;;;7.20;1.63;;;;;;;;;;10536832;28;20878;-77
2024/02/05 19:27:41;;;;;;;4.22;1.17;;;;;;;;;;10518304;28;20408;-76
2024/02/05 19:32:45;;;;;;;3.97;1.20;;;;;;;;;;10534676;28;20040;-77
2024/02/05 19:37:49;;;;;;;7.25;1.27;;;;;;;;;;10529917;28;20124;-76
2024/02/05 19:42:54;;;;;;;4.03;0.68;;;;;;;;;;10530800;28;20061;-76
2024/02/05 19:47:58;;;;;;;7.20;1.63;;;;;;;;;;10529274;28;20044;-76
2024/02/05 19:53:03;;;;;;;2.88;0.90;;;;;;;;;;10538865;27;20440;-77
2024/02/05 19:58:07;;;;;;;12.23;1.98;;;;;;;;;;10539389;27;20059;-76
2024/02/05 20:03:10;;;;;;;8.90;1.40;;;;;;;;;;10539360;27;20061;-76
2024/02/05 20:08:15;;;;;;;4.35;0.80;;;;;;;;;;10540176;27;20427;-75
2024/02/05 20:13:17;;;;;;;4.57;1.38;;;;;;;;;;10540873;27;20472;-73
2024/02/05 20:18:21;;;;;;;5.18;1.15;;;;;;;;;;10523453;27;20398;-77
2024/02/05 20:23:25;;;;;;;13.18;1.75;;;;;;;;;;10539315;27;20032;-76
2024/02/05 20:28:27;;;;;;;;;;;;;;;;;;10540459;27;20349;-75
2024/02/05 20:33:30;;;;;;;9.02;1.60;;;;;;;;;;10538482;28;20606;-76
2024/02/05 20:38:35;;;;;;;3.63;1.13;;;;;;;;;;10537900;27;20548;-76
2024/02/05 20:43:38;;;;;;;4.32;1.35;;;;;;;;;;10541050;27;20048;-75
2024/02/05 20:48:43;;;;;;;5.38;0.90;;;;;;;;;;10538086;27;20412;-75
2024/02/05 20:53:49;;;;;;;2.83;0.57;;;;;;;;;;10538227;27;21458;-77
2024/02/05 20:58:54;;;;;;;5.13;1.70;;;;;;;;;;10540728;27;20047;-77
2024/02/05 21:03:57;;;;;;;5.28;1.10;;;;;;;;;;10543020;27;20120;-78
2024/02/05 21:09:07;;;;;;;5.15;1.83;;;;;;;;;;10538393;27;20039;-76
2024/02/05 21:14:11;;;;;;;4.22;1.42;;;;;;;;;;10539755;27;20509;-77
2024/02/05 21:19:14;;;;;;;3.03;1.65;;;;;;;;;;10541713;27;20035;-77
2024/02/05 21:24:21;;;;;;;1.50;0.70;;;;;;;;;;10537292;27;20165;-78
2024/02/05 21:29:24;;;;;;;4.97;0.95;;;;;;;;;;10536536;27;20105;-78
2024/02/05 21:34:27;;;;;;;6.22;1.35;;;;;;;;;;10535049;27;20043;-76
2024/02/05 21:39:31;;;;;;;6.55;1.05;;;;;;;;;;10534031;27;20055;-76
2024/02/05 21:44:34;;;;;;;2.85;0.75;;;;;;;;;;10534536;28;20101;-76
2024/02/05 21:49:36;;;;;;;3.72;1.13;;;;;;;;;;10535233;27;20137;-75
2024/02/05 21:54:41;;;;;;;5.32;0.82;;;;;;;;;;10535191;27;20047;-76
2024/02/05 21:59:43;;;;;;;;;;;;;;;;;;10534290;27;20347;-76
2024/02/05 22:04:47;;;;;;;4.35;1.00;;;;;;;;;;10535114;27;19923;-76
2024/02/05 22:09:51;;;;;;;0.95;0.60;;;;;;;;;;10535633;27;20062;-76
2024/02/05 22:14:54;;;;;;;8.15;1.73;;;;;;;;;;10534209;27;20137;-77
2024/02/05 22:19:57;;;;;;;9.80;1.02;;;;;;;;;;10537505;27;20040;-75
2024/02/05 22:25:01;;;;;;;6.13;1.30;;;;;;;;;;10524713;27;20446;-75
2024/02/05 22:30:05;;;;;;;3.95;1.40;;;;;;;;;;10520196;28;20497;-76
2024/02/05 22:35:08;;;;;;;1.00;0.80;;;;;;;;;;10545024;27;20181;-76
2024/02/05 22:40:13;;;;;;;3.20;1.30;;;;;;;;;;10534807;27;20040;-76
2024/02/05 22:45:16;;;;;;;3.47;0.75;;;;;;;;;;10535666;27;20067;-76
2024/02/05 22:50:19;;;;;;;3.05;0.80;;;;;;;;;;10532381;27;20043;-77
2024/02/05 22:55:23;;;;;;;2.17;0.83;;;;;;;;;;10531582;27;20047;-76
2024/02/05 23:00:27;;;;;;;1.20;0.68;;;;;;;;;;10535469;27;20408;-76
2024/02/05 23:05:30;;;;;;;0.95;0.43;;;;;;;;;;10535659;28;20040;-77
2024/02/05 23:10:34;;;;;;;2.97;0.68;;;;;;;;;;10533574;28;20096;-79
2024/02/05 23:15:37;;;;;;;;;;;;;;;;;;10535674;28;20031;-77
2024/02/05 23:20:40;;;;;;;3.17;1.02;;;;;;;;;;10538311;27;19928;-78
2024/02/05 23:25:43;;;;;;;2.20;0.47;;;;;;;;;;10535309;28;20046;-75
2024/02/05 23:30:46;;;;;;;4.18;1.27;;;;;;;;;;10531466;28;20433;-75
2024/02/05 23:35:49;;;;;;;1.33;1.00;;;;;;;;;;10531208;28;20055;-75
2024/02/05 23:40:54;;;;;;;3.20;1.13;;;;;;;;;;10533116;28;20129;-77
2024/02/05 23:45:56;;;;;;;4.22;1.20;;;;;;;;;;10532304;28;20032;-75
2024/02/05 23:50:59;;;;;;;3.17;1.25;;;;;;;;;;10530800;28;20505;-75
2024/02/05 23:56:03;;;;;;;4.13;0.93;;;;;;;;;;10530918;28;20386;-75
